Terminal Aerodrome Forecast
Issued by NWS Jackson, MS

Home | Current Version | Previous Version | Text Only | Print | Product List | Glossary On
Versions: 1 2 3 4 5 6 7 8 9 10 11 12 13 14 15 16 17 18
000
FTUS44 KMEG 281733
TAFTUP
TAF
KTUP 281733Z 2818/2918 15005KT P6SM SCT015 BKN025
     FM282000 17005KT P6SM VCTS SCT025CB BKN035
     FM290000 16003KT P6SM SCT035 BKN100
     FM290800 18004KT 5SM BR OVC008
      TEMPO 2909/2913 3SM BR OVC005
     FM291400 16005KT P6SM SCT005 BKN012
     FM291600 17007KT P6SM VCTS BKN025CB=

USA.gov is the U.S. government's official web portal to all federal, state and local government web resources and services.